Miami, FL

4:23 AM EDT on August 22, 2014 (GMT -0400)
Twig's Digs - Coconut Grove | Change Station
CLOSE
Current Station
Personal Weather Station
Location: Coconut Grove, FL
Elevation: 14 ft
Nearby Weather Stations

Elev 14 ft 25.74 °N, 80.24 °W | Updated 23 minutes ago

Mostly Cloudy
Mostly Cloudy
82.2 °F
Feels Like 89 °F
N
0.0
Wind Variable Wind from East
Gusts 3.0 mph

Today
High -- | Low -- °F
--% Chance of Precip.
Yesterday
High -- | Low -- °F
Precip. -- in
6:57 AM 7:50 PM
Waning Crescent, 9% visible
Pressure 30.06 in
Visibility 10.0 miles
Clouds Scattered Clouds 2500 ft
Mostly Cloudy 25000 ft
Heat Index 89 °F
Dew Point 75 °F
Humidity 78%
Rainfall 0.00 in
Snow Depth Not available.
UV 0 out of 12
Pollen 4.60 out of 12
Air Quality Not available.
Flu Activity Not available.
METAR KMIA 220753Z COR 09004KT 10SM SCT025 BKN250 28/22 A3006 RMK AO2 SLP179 CB DSNT SE T02780222

More Conditions Fewer Conditions

Pressure 30.06 in
Visibility 10.0 miles
Clouds Scattered Clouds 2500 ft
Mostly Cloudy 25000 ft
Heat Index 89 °F
Dew Point 75 °F
Humidity 78%
Rainfall 0.00 in
Snow Depth Not available.
UV 0 out of 12
Pollen 4.60 out of 12
Air Quality Not available.
Flu Activity Not available.
METAR KMIA 220753Z COR 09004KT 10SM SCT025 BKN250 28/22 A3006 RMK AO2 SLP179 CB DSNT SE T02780222

More Conditions Fewer Conditions

10-Day Weather Forecast

Almanac

Astronomy

Aug. 22, 2014 Rise Set
Actual Time 6:57 AM EDT 7:50 PM EDT
Civil Twilight 6:33 AM EDT 8:14 PM EDT
Nautical Twilight 6:05 AM EDT 8:42 PM EDT
Astronomical Twilight 5:36 AM EDT 9:10 PM EDT
Moon 4:25 AM EDT 5:52 PM EDT
Length of Visible Light 13h 40m
Length of Day
12h 53m
Tomorrow will be 1m 23s shorter.
Waning Crescent, 9% of the Moon is Illuminated
Today
Waning Crescent
Aug 25
New
Sep 2
First Quarter
Sep 8
Full
Sep 15
Last Quarter

Today's Extremes

State Highs State Lows

Community

WunderPhotos

Upload Photos

1,746,144 photos uploaded!

Nearby

Air Quality

  Air Quality AQ Index Pollutant
Yesterday Moderate
PM2.5
Friday Good
OZONE
Friday Good
PM2.5

Snow Depth

Station Depth Elevation
No new snow has been reported.

Earthquake Activity

City Distance Mag. Time & Date
No recent earthquake activity has been reported nearby.
Minimum magnitude displayed is 2.5.

Coastal Water Temperatures

Place Temperature
Virginia Key, FL 90.0 °F

Nearby Weather Stations